sensor_id;sensor_type;location;lat;lon;timestamp;P1;durP1;ratioP1;P2;durP2;ratioP2
15449;SDS011;7826;49.784;9.934;2024-03-08T00:00:17;22.87;;;13.20;;
15449;SDS011;7826;49.784;9.934;2024-03-08T00:02:47;26.10;;;14.57;;
15449;SDS011;7826;49.784;9.934;2024-03-08T00:05:14;24.17;;;13.10;;
15449;SDS011;7826;49.784;9.934;2024-03-08T00:07:40;21.13;;;13.07;;
15449;SDS011;7826;49.784;9.934;2024-03-08T00:10:08;27.37;;;14.70;;
15449;SDS011;7826;49.784;9.934;2024-03-08T00:12:38;24.30;;;13.50;;
15449;SDS011;7826;49.784;9.934;2024-03-08T00:15:09;24.27;;;13.67;;
15449;SDS011;7826;49.784;9.934;2024-03-08T00:17:40;23.37;;;14.43;;
15449;SDS011;7826;49.784;9.934;2024-03-08T00:20:07;25.10;;;13.87;;
15449;SDS011;7826;49.784;9.934;2024-03-08T00:22:34;25.20;;;14.03;;
15449;SDS011;7826;49.784;9.934;2024-03-08T00:25:01;24.63;;;14.70;;
15449;SDS011;7826;49.784;9.934;2024-03-08T00:27:28;24.03;;;14.33;;
15449;SDS011;7826;49.784;9.934;2024-03-08T00:29:59;23.83;;;14.23;;
15449;SDS011;7826;49.784;9.934;2024-03-08T00:32:26;26.73;;;15.00;;
15449;SDS011;7826;49.784;9.934;2024-03-08T00:34:53;26.43;;;15.27;;
15449;SDS011;7826;49.784;9.934;2024-03-08T00:37:23;27.00;;;14.67;;
15449;SDS011;7826;49.784;9.934;2024-03-08T00:39:50;28.10;;;16.67;;
15449;SDS011;7826;49.784;9.934;2024-03-08T00:42:17;27.40;;;15.03;;
15449;SDS011;7826;49.784;9.934;2024-03-08T00:44:44;28.23;;;16.00;;
15449;SDS011;7826;49.784;9.934;2024-03-08T00:47:10;29.77;;;15.47;;
15449;SDS011;7826;49.784;9.934;2024-03-08T00:49:36;27.70;;;14.90;;
15449;SDS011;7826;49.784;9.934;2024-03-08T00:52:04;30.93;;;16.40;;
15449;SDS011;7826;49.784;9.934;2024-03-08T00:54:33;26.00;;;14.80;;
15449;SDS011;7826;49.784;9.934;2024-03-08T00:57:01;25.07;;;14.40;;
15449;SDS011;7826;49.784;9.934;2024-03-08T00:59:28;23.33;;;13.30;;
15449;SDS011;7826;49.784;9.934;2024-03-08T01:01:55;27.33;;;15.50;;
15449;SDS011;7826;49.784;9.934;2024-03-08T01:04:22;26.47;;;14.43;;
15449;SDS011;7826;49.784;9.934;2024-03-08T01:06:48;28.10;;;15.23;;
15449;SDS011;7826;49.784;9.934;2024-03-08T01:09:14;26.53;;;15.30;;
15449;SDS011;7826;49.784;9.934;2024-03-08T01:11:42;31.10;;;15.40;;
15449;SDS011;7826;49.784;9.934;2024-03-08T01:14:09;27.67;;;15.70;;
15449;SDS011;7826;49.784;9.934;2024-03-08T01:16:35;27.13;;;15.00;;
15449;SDS011;7826;49.784;9.934;2024-03-08T01:19:01;25.07;;;15.13;;
15449;SDS011;7826;49.784;9.934;2024-03-08T01:21:29;25.53;;;14.40;;
15449;SDS011;7826;49.784;9.934;2024-03-08T01:23:55;27.63;;;15.47;;
15449;SDS011;7826;49.784;9.934;2024-03-08T01:26:21;26.10;;;14.10;;
15449;SDS011;7826;49.784;9.934;2024-03-08T01:28:47;25.37;;;14.37;;
15449;SDS011;7826;49.784;9.934;2024-03-08T01:31:14;26.37;;;14.47;;
15449;SDS011;7826;49.784;9.934;2024-03-08T01:33:41;22.47;;;14.00;;
15449;SDS011;7826;49.784;9.934;2024-03-08T01:36:08;26.60;;;14.57;;
15449;SDS011;7826;49.784;9.934;2024-03-08T01:38:34;29.07;;;15.23;;
15449;SDS011;7826;49.784;9.934;2024-03-08T01:41:01;25.30;;;15.13;;
15449;SDS011;7826;49.784;9.934;2024-03-08T01:43:28;28.57;;;15.33;;
15449;SDS011;7826;49.784;9.934;2024-03-08T01:45:55;26.90;;;15.13;;
15449;SDS011;7826;49.784;9.934;2024-03-08T01:48:27;26.53;;;15.17;;
15449;SDS011;7826;49.784;9.934;2024-03-08T01:50:55;27.33;;;15.67;;
15449;SDS011;7826;49.784;9.934;2024-03-08T01:53:29;27.07;;;15.97;;
15449;SDS011;7826;49.784;9.934;2024-03-08T01:55:56;28.50;;;15.67;;
15449;SDS011;7826;49.784;9.934;2024-03-08T01:58:23;25.33;;;15.07;;
15449;SDS011;7826;49.784;9.934;2024-03-08T02:00:53;27.93;;;15.17;;
15449;SDS011;7826;49.784;9.934;2024-03-08T02:03:21;29.20;;;16.23;;
15449;SDS011;7826;49.784;9.934;2024-03-08T02:05:48;27.60;;;15.17;;
15449;SDS011;7826;49.784;9.934;2024-03-08T02:08:15;27.50;;;15.47;;
15449;SDS011;7826;49.784;9.934;2024-03-08T02:10:43;26.90;;;15.97;;
15449;SDS011;7826;49.784;9.934;2024-03-08T02:13:10;24.57;;;15.13;;
15449;SDS011;7826;49.784;9.934;2024-03-08T02:15:50;28.63;;;15.00;;
15449;SDS011;7826;49.784;9.934;2024-03-08T02:18:20;29.00;;;14.70;;
15449;SDS011;7826;49.784;9.934;2024-03-08T02:20:57;28.00;;;15.97;;
15449;SDS011;7826;49.784;9.934;2024-03-08T02:23:25;26.73;;;15.33;;
15449;SDS011;7826;49.784;9.934;2024-03-08T02:25:53;28.60;;;16.63;;
15449;SDS011;7826;49.784;9.934;2024-03-08T02:28:20;27.50;;;15.60;;
15449;SDS011;7826;49.784;9.934;2024-03-08T02:30:46;29.67;;;15.57;;
15449;SDS011;7826;49.784;9.934;2024-03-08T02:33:13;32.63;;;16.97;;
15449;SDS011;7826;49.784;9.934;2024-03-08T02:35:44;25.63;;;14.83;;
15449;SDS011;7826;49.784;9.934;2024-03-08T02:38:15;27.20;;;15.47;;
15449;SDS011;7826;49.784;9.934;2024-03-08T02:40:42;29.60;;;16.20;;
15449;SDS011;7826;49.784;9.934;2024-03-08T02:43:09;29.83;;;15.83;;
15449;SDS011;7826;49.784;9.934;2024-03-08T02:45:36;30.37;;;16.53;;
15449;SDS011;7826;49.784;9.934;2024-03-08T02:48:03;29.57;;;16.13;;
15449;SDS011;7826;49.784;9.934;2024-03-08T02:50:29;29.27;;;16.20;;
15449;SDS011;7826;49.784;9.934;2024-03-08T02:52:55;31.37;;;16.67;;
15449;SDS011;7826;49.784;9.934;2024-03-08T02:55:21;32.50;;;16.83;;
15449;SDS011;7826;49.784;9.934;2024-03-08T02:57:47;29.83;;;16.20;;
15449;SDS011;7826;49.784;9.934;2024-03-08T03:00:14;24.70;;;15.63;;
15449;SDS011;7826;49.784;9.934;2024-03-08T03:02:41;29.37;;;16.50;;
15449;SDS011;7826;49.784;9.934;2024-03-08T03:05:08;32.40;;;16.87;;
15449;SDS011;7826;49.784;9.934;2024-03-08T03:07:35;30.03;;;16.83;;
15449;SDS011;7826;49.784;9.934;2024-03-08T03:10:03;31.10;;;17.17;;
15449;SDS011;7826;49.784;9.934;2024-03-08T03:12:30;31.37;;;16.83;;
15449;SDS011;7826;49.784;9.934;2024-03-08T03:14:58;28.80;;;16.83;;
15449;SDS011;7826;49.784;9.934;2024-03-08T03:17:24;33.33;;;17.13;;
15449;SDS011;7826;49.784;9.934;2024-03-08T03:19:51;33.17;;;17.07;;
15449;SDS011;7826;49.784;9.934;2024-03-08T03:22:18;32.37;;;16.77;;
15449;SDS011;7826;49.784;9.934;2024-03-08T03:24:44;32.37;;;17.20;;
15449;SDS011;7826;49.784;9.934;2024-03-08T03:27:14;30.93;;;17.50;;
15449;SDS011;7826;49.784;9.934;2024-03-08T03:29:41;28.87;;;16.47;;
15449;SDS011;7826;49.784;9.934;2024-03-08T03:32:11;32.03;;;17.27;;
15449;SDS011;7826;49.784;9.934;2024-03-08T03:34:38;29.40;;;16.17;;
15449;SDS011;7826;49.784;9.934;2024-03-08T03:37:05;28.73;;;16.23;;
15449;SDS011;7826;49.784;9.934;2024-03-08T03:39:34;30.27;;;15.90;;
15449;SDS011;7826;49.784;9.934;2024-03-08T03:42:00;30.73;;;16.53;;
15449;SDS011;7826;49.784;9.934;2024-03-08T03:44:29;29.20;;;16.87;;
15449;SDS011;7826;49.784;9.934;2024-03-08T03:46:55;30.40;;;15.50;;
15449;SDS011;7826;49.784;9.934;2024-03-08T03:49:22;30.50;;;16.47;;
15449;SDS011;7826;49.784;9.934;2024-03-08T03:51:49;29.97;;;16.90;;
15449;SDS011;7826;49.784;9.934;2024-03-08T03:54:15;27.77;;;15.07;;
15449;SDS011;7826;49.784;9.934;2024-03-08T03:56:41;31.00;;;16.57;;
15449;SDS011;7826;49.784;9.934;2024-03-08T03:59:07;30.10;;;16.27;;
15449;SDS011;7826;49.784;9.934;2024-03-08T04:01:34;31.23;;;16.77;;
15449;SDS011;7826;49.784;9.934;2024-03-08T04:04:00;29.87;;;17.13;;
15449;SDS011;7826;49.784;9.934;2024-03-08T04:06:26;29.03;;;17.23;;
15449;SDS011;7826;49.784;9.934;2024-03-08T04:08:52;32.03;;;17.33;;
15449;SDS011;7826;49.784;9.934;2024-03-08T04:11:18;28.80;;;16.53;;
15449;SDS011;7826;49.784;9.934;2024-03-08T04:13:44;30.63;;;16.13;;
15449;SDS011;7826;49.784;9.934;2024-03-08T04:16:10;28.97;;;15.93;;
15449;SDS011;7826;49.784;9.934;2024-03-08T04:18:37;34.47;;;16.73;;
15449;SDS011;7826;49.784;9.934;2024-03-08T04:21:06;28.73;;;15.50;;
15449;SDS011;7826;49.784;9.934;2024-03-08T04:23:34;29.67;;;16.40;;
15449;SDS011;7826;49.784;9.934;2024-03-08T04:26:03;29.60;;;17.00;;
15449;SDS011;7826;49.784;9.934;2024-03-08T04:28:34;32.57;;;17.53;;
15449;SDS011;7826;49.784;9.934;2024-03-08T04:31:00;33.80;;;16.67;;
15449;SDS011;7826;49.784;9.934;2024-03-08T04:33:26;32.60;;;16.60;;
15449;SDS011;7826;49.784;9.934;2024-03-08T04:35:53;30.57;;;16.67;;
15449;SDS011;7826;49.784;9.934;2024-03-08T04:38:19;31.80;;;16.70;;
15449;SDS011;7826;49.784;9.934;2024-03-08T04:40:45;31.87;;;16.10;;
15449;SDS011;7826;49.784;9.934;2024-03-08T04:43:11;33.77;;;16.43;;
15449;SDS011;7826;49.784;9.934;2024-03-08T04:45:38;32.00;;;16.57;;
15449;SDS011;7826;49.784;9.934;2024-03-08T04:48:04;33.90;;;18.37;;
15449;SDS011;7826;49.784;9.934;2024-03-08T04:50:31;38.07;;;18.60;;
15449;SDS011;7826;49.784;9.934;2024-03-08T04:52:57;39.23;;;18.50;;
15449;SDS011;7826;49.784;9.934;2024-03-08T04:55:23;33.53;;;17.07;;
15449;SDS011;7826;49.784;9.934;2024-03-08T04:57:50;36.03;;;18.77;;
15449;SDS011;7826;49.784;9.934;2024-03-08T05:00:16;37.23;;;17.77;;
15449;SDS011;7826;49.784;9.934;2024-03-08T05:02:43;38.70;;;18.43;;
15449;SDS011;7826;49.784;9.934;2024-03-08T05:05:09;33.53;;;17.77;;
15449;SDS011;7826;49.784;9.934;2024-03-08T05:07:39;31.73;;;17.20;;
15449;SDS011;7826;49.784;9.934;2024-03-08T05:10:05;35.10;;;17.77;;
15449;SDS011;7826;49.784;9.934;2024-03-08T05:12:35;35.13;;;17.87;;
15449;SDS011;7826;49.784;9.934;2024-03-08T05:15:01;36.77;;;17.70;;
15449;SDS011;7826;49.784;9.934;2024-03-08T05:17:28;33.50;;;17.57;;
15449;SDS011;7826;49.784;9.934;2024-03-08T05:19:55;37.97;;;19.50;;
15449;SDS011;7826;49.784;9.934;2024-03-08T05:22:22;32.10;;;17.67;;
15449;SDS011;7826;49.784;9.934;2024-03-08T05:24:48;33.17;;;17.03;;
15449;SDS011;7826;49.784;9.934;2024-03-08T05:27:14;34.83;;;18.40;;
15449;SDS011;7826;49.784;9.934;2024-03-08T05:29:40;33.73;;;17.73;;
15449;SDS011;7826;49.784;9.934;2024-03-08T05:32:06;37.37;;;18.53;;
15449;SDS011;7826;49.784;9.934;2024-03-08T05:34:33;39.23;;;18.70;;
15449;SDS011;7826;49.784;9.934;2024-03-08T05:36:59;37.80;;;18.23;;
15449;SDS011;7826;49.784;9.934;2024-03-08T05:39:25;34.07;;;18.70;;
15449;SDS011;7826;49.784;9.934;2024-03-08T05:41:51;33.70;;;17.97;;
15449;SDS011;7826;49.784;9.934;2024-03-08T05:44:18;36.73;;;18.50;;
15449;SDS011;7826;49.784;9.934;2024-03-08T05:46:44;32.40;;;17.90;;
15449;SDS011;7826;49.784;9.934;2024-03-08T05:49:12;32.33;;;18.10;;
15449;SDS011;7826;49.784;9.934;2024-03-08T05:51:39;36.60;;;18.80;;
15449;SDS011;7826;49.784;9.934;2024-03-08T05:54:12;36.97;;;19.13;;
15449;SDS011;7826;49.784;9.934;2024-03-08T05:56:38;35.57;;;18.63;;
15449;SDS011;7826;49.784;9.934;2024-03-08T05:59:09;37.07;;;19.27;;
15449;SDS011;7826;49.784;9.934;2024-03-08T06:01:35;34.23;;;17.73;;
15449;SDS011;7826;49.784;9.934;2024-03-08T06:04:02;33.40;;;18.37;;
15449;SDS011;7826;49.784;9.934;2024-03-08T06:06:29;35.57;;;18.67;;
15449;SDS011;7826;49.784;9.934;2024-03-08T06:08:55;35.90;;;18.17;;
15449;SDS011;7826;49.784;9.934;2024-03-08T06:11:25;35.27;;;18.47;;
15449;SDS011;7826;49.784;9.934;2024-03-08T06:13:55;34.77;;;18.00;;
15449;SDS011;7826;49.784;9.934;2024-03-08T06:16:27;37.93;;;19.33;;
15449;SDS011;7826;49.784;9.934;2024-03-08T06:18:57;34.13;;;19.47;;
15449;SDS011;7826;49.784;9.934;2024-03-08T06:21:24;32.97;;;17.43;;
15449;SDS011;7826;49.784;9.934;2024-03-08T06:23:53;36.07;;;18.70;;
15449;SDS011;7826;49.784;9.934;2024-03-08T06:26:23;39.57;;;19.03;;
15449;SDS011;7826;49.784;9.934;2024-03-08T06:28:50;34.50;;;18.47;;
15449;SDS011;7826;49.784;9.934;2024-03-08T06:31:16;39.57;;;19.63;;
15449;SDS011;7826;49.784;9.934;2024-03-08T06:33:43;44.50;;;20.90;;
15449;SDS011;7826;49.784;9.934;2024-03-08T06:36:09;40.07;;;20.70;;
15449;SDS011;7826;49.784;9.934;2024-03-08T06:38:40;40.83;;;21.23;;
15449;SDS011;7826;49.784;9.934;2024-03-08T06:41:11;39.03;;;21.07;;
15449;SDS011;7826;49.784;9.934;2024-03-08T06:43:43;39.97;;;19.20;;
15449;SDS011;7826;49.784;9.934;2024-03-08T06:46:11;40.43;;;20.17;;
15449;SDS011;7826;49.784;9.934;2024-03-08T06:48:38;41.07;;;20.23;;
15449;SDS011;7826;49.784;9.934;2024-03-08T06:51:05;32.97;;;18.47;;
15449;SDS011;7826;49.784;9.934;2024-03-08T06:53:31;38.13;;;19.00;;
15449;SDS011;7826;49.784;9.934;2024-03-08T06:55:58;38.10;;;19.30;;
15449;SDS011;7826;49.784;9.934;2024-03-08T06:58:25;37.23;;;19.63;;
15449;SDS011;7826;49.784;9.934;2024-03-08T07:00:51;38.43;;;19.23;;
15449;SDS011;7826;49.784;9.934;2024-03-08T07:03:23;39.37;;;19.50;;
15449;SDS011;7826;49.784;9.934;2024-03-08T07:05:50;39.00;;;19.17;;
15449;SDS011;7826;49.784;9.934;2024-03-08T07:08:16;32.50;;;17.67;;
15449;SDS011;7826;49.784;9.934;2024-03-08T07:10:42;34.20;;;18.57;;
15449;SDS011;7826;49.784;9.934;2024-03-08T07:13:10;35.93;;;18.73;;
15449;SDS011;7826;49.784;9.934;2024-03-08T07:15:36;32.37;;;17.67;;
15449;SDS011;7826;49.784;9.934;2024-03-08T07:18:02;33.47;;;19.30;;
15449;SDS011;7826;49.784;9.934;2024-03-08T07:20:29;33.60;;;17.30;;
15449;SDS011;7826;49.784;9.934;2024-03-08T07:22:55;36.97;;;19.67;;
15449;SDS011;7826;49.784;9.934;2024-03-08T07:25:21;34.20;;;18.30;;
15449;SDS011;7826;49.784;9.934;2024-03-08T07:30:18;41.60;;;19.50;;
15449;SDS011;7826;49.784;9.934;2024-03-08T07:33:04;37.67;;;19.43;;
15449;SDS011;7826;49.784;9.934;2024-03-08T07:35:33;37.30;;;19.77;;
15449;SDS011;7826;49.784;9.934;2024-03-08T07:38:05;34.57;;;18.83;;
15449;SDS011;7826;49.784;9.934;2024-03-08T07:40:40;34.40;;;19.27;;
15449;SDS011;7826;49.784;9.934;2024-03-08T07:43:10;34.97;;;19.60;;
15449;SDS011;7826;49.784;9.934;2024-03-08T07:45:40;35.93;;;20.50;;
15449;SDS011;7826;49.784;9.934;2024-03-08T07:48:06;36.57;;;19.53;;
15449;SDS011;7826;49.784;9.934;2024-03-08T07:50:36;31.97;;;18.13;;
15449;SDS011;7826;49.784;9.934;2024-03-08T07:53:04;30.17;;;18.37;;
15449;SDS011;7826;49.784;9.934;2024-03-08T07:55:34;29.20;;;19.10;;
15449;SDS011;7826;49.784;9.934;2024-03-08T07:58:01;29.67;;;17.97;;
15449;SDS011;7826;49.784;9.934;2024-03-08T08:00:28;31.90;;;18.60;;
15449;SDS011;7826;49.784;9.934;2024-03-08T08:02:57;30.10;;;18.23;;
15449;SDS011;7826;49.784;9.934;2024-03-08T08:05:23;27.67;;;18.27;;
15449;SDS011;7826;49.784;9.934;2024-03-08T08:07:49;27.03;;;17.73;;
15449;SDS011;7826;49.784;9.934;2024-03-08T08:10:18;26.83;;;17.57;;
15449;SDS011;7826;49.784;9.934;2024-03-08T08:12:47;25.93;;;17.50;;
15449;SDS011;7826;49.784;9.934;2024-03-08T08:15:14;27.80;;;18.40;;
15449;SDS011;7826;49.784;9.934;2024-03-08T08:17:44;25.97;;;18.03;;
15449;SDS011;7826;49.784;9.934;2024-03-08T08:20:10;26.73;;;18.07;;
15449;SDS011;7826;49.784;9.934;2024-03-08T08:22:39;26.70;;;17.77;;
15449;SDS011;7826;49.784;9.934;2024-03-08T08:25:06;28.13;;;18.80;;
15449;SDS011;7826;49.784;9.934;2024-03-08T08:27:33;25.23;;;17.80;;
15449;SDS011;7826;49.784;9.934;2024-03-08T08:29:59;27.77;;;19.13;;
15449;SDS011;7826;49.784;9.934;2024-03-08T08:32:25;27.50;;;18.00;;
15449;SDS011;7826;49.784;9.934;2024-03-08T08:34:52;28.93;;;18.23;;
15449;SDS011;7826;49.784;9.934;2024-03-08T08:37:18;26.57;;;18.70;;
15449;SDS011;7826;49.784;9.934;2024-03-08T08:39:44;25.93;;;17.40;;
15449;SDS011;7826;49.784;9.934;2024-03-08T08:42:10;25.20;;;17.40;;
15449;SDS011;7826;49.784;9.934;2024-03-08T08:44:36;25.30;;;16.57;;
15449;SDS011;7826;49.784;9.934;2024-03-08T08:47:02;26.77;;;17.50;;
15449;SDS011;7826;49.784;9.934;2024-03-08T08:49:29;27.70;;;17.73;;
15449;SDS011;7826;49.784;9.934;2024-03-08T08:51:56;26.93;;;18.43;;
15449;SDS011;7826;49.784;9.934;2024-03-08T08:54:23;27.43;;;17.90;;
15449;SDS011;7826;49.784;9.934;2024-03-08T08:56:50;27.80;;;18.90;;
15449;SDS011;7826;49.784;9.934;2024-03-08T08:59:17;25.37;;;17.40;;
15449;SDS011;7826;49.784;9.934;2024-03-08T09:01:45;29.60;;;18.47;;
15449;SDS011;7826;49.784;9.934;2024-03-08T09:04:15;26.27;;;18.40;;
15449;SDS011;7826;49.784;9.934;2024-03-08T09:06:42;27.97;;;18.07;;
15449;SDS011;7826;49.784;9.934;2024-03-08T09:09:08;26.20;;;17.87;;
15449;SDS011;7826;49.784;9.934;2024-03-08T09:11:34;26.80;;;17.27;;
15449;SDS011;7826;49.784;9.934;2024-03-08T09:14:00;26.13;;;16.53;;
15449;SDS011;7826;49.784;9.934;2024-03-08T09:16:27;27.17;;;17.13;;
15449;SDS011;7826;49.784;9.934;2024-03-08T09:18:53;26.47;;;16.97;;
15449;SDS011;7826;49.784;9.934;2024-03-08T09:21:19;26.40;;;16.63;;
15449;SDS011;7826;49.784;9.934;2024-03-08T09:23:45;25.10;;;16.00;;
15449;SDS011;7826;49.784;9.934;2024-03-08T09:26:12;26.10;;;15.53;;
15449;SDS011;7826;49.784;9.934;2024-03-08T09:28:38;27.77;;;17.33;;
15449;SDS011;7826;49.784;9.934;2024-03-08T09:31:04;25.67;;;15.63;;
15449;SDS011;7826;49.784;9.934;2024-03-08T09:33:31;26.83;;;15.77;;
15449;SDS011;7826;49.784;9.934;2024-03-08T09:35:57;25.30;;;14.83;;
15449;SDS011;7826;49.784;9.934;2024-03-08T09:38:23;23.83;;;13.90;;
15449;SDS011;7826;49.784;9.934;2024-03-08T09:40:50;34.37;;;15.93;;
15449;SDS011;7826;49.784;9.934;2024-03-08T09:43:18;21.67;;;14.27;;
15449;SDS011;7826;49.784;9.934;2024-03-08T09:45:45;23.67;;;14.40;;
15449;SDS011;7826;49.784;9.934;2024-03-08T09:48:15;22.67;;;14.13;;
15449;SDS011;7826;49.784;9.934;2024-03-08T09:50:44;25.30;;;15.83;;
15449;SDS011;7826;49.784;9.934;2024-03-08T09:53:11;24.80;;;15.57;;
15449;SDS011;7826;49.784;9.934;2024-03-08T09:55:38;22.07;;;13.60;;
15449;SDS011;7826;49.784;9.934;2024-03-08T09:58:11;20.83;;;12.90;;
15449;SDS011;7826;49.784;9.934;2024-03-08T10:00:41;22.50;;;14.10;;
15449;SDS011;7826;49.784;9.934;2024-03-08T10:03:07;26.03;;;15.03;;
15449;SDS011;7826;49.784;9.934;2024-03-08T10:05:34;26.37;;;15.13;;
15449;SDS011;7826;49.784;9.934;2024-03-08T10:08:00;23.00;;;14.20;;
15449;SDS011;7826;49.784;9.934;2024-03-08T10:10:26;21.77;;;13.43;;
15449;SDS011;7826;49.784;9.934;2024-03-08T10:12:52;24.90;;;14.23;;
15449;SDS011;7826;49.784;9.934;2024-03-08T10:15:19;25.70;;;14.90;;
15449;SDS011;7826;49.784;9.934;2024-03-08T10:17:45;21.23;;;13.00;;
15449;SDS011;7826;49.784;9.934;2024-03-08T10:20:15;24.27;;;13.50;;
15449;SDS011;7826;49.784;9.934;2024-03-08T10:22:42;22.20;;;13.37;;
15449;SDS011;7826;49.784;9.934;2024-03-08T10:25:10;24.43;;;12.30;;
15449;SDS011;7826;49.784;9.934;2024-03-08T10:27:40;19.60;;;12.40;;
15449;SDS011;7826;49.784;9.934;2024-03-08T10:30:10;20.33;;;11.00;;
15449;SDS011;7826;49.784;9.934;2024-03-08T10:32:40;23.40;;;12.53;;
15449;SDS011;7826;49.784;9.934;2024-03-08T10:35:10;24.20;;;14.37;;
15449;SDS011;7826;49.784;9.934;2024-03-08T10:37:47;22.83;;;13.67;;
15449;SDS011;7826;49.784;9.934;2024-03-08T10:40:25;21.57;;;13.07;;
15449;SDS011;7826;49.784;9.934;2024-03-08T10:42:53;22.13;;;13.03;;
15449;SDS011;7826;49.784;9.934;2024-03-08T10:45:31;21.93;;;13.43;;
15449;SDS011;7826;49.784;9.934;2024-03-08T10:50:33;24.17;;;13.23;;
15449;SDS011;7826;49.784;9.934;2024-03-08T10:53:00;21.30;;;13.93;;
15449;SDS011;7826;49.784;9.934;2024-03-08T10:55:28;22.63;;;13.63;;
15449;SDS011;7826;49.784;9.934;2024-03-08T10:57:59;24.17;;;15.03;;
15449;SDS011;7826;49.784;9.934;2024-03-08T11:00:26;21.90;;;13.40;;
15449;SDS011;7826;49.784;9.934;2024-03-08T11:02:56;25.63;;;14.63;;
15449;SDS011;7826;49.784;9.934;2024-03-08T11:08:19;23.67;;;13.57;;
15449;SDS011;7826;49.784;9.934;2024-03-08T11:10:49;20.67;;;12.67;;
15449;SDS011;7826;49.784;9.934;2024-03-08T11:13:35;23.30;;;14.30;;
15449;SDS011;7826;49.784;9.934;2024-03-08T11:16:09;20.63;;;11.90;;
15449;SDS011;7826;49.784;9.934;2024-03-08T11:18:36;19.57;;;13.83;;
15449;SDS011;7826;49.784;9.934;2024-03-08T11:21:03;22.47;;;12.00;;
15449;SDS011;7826;49.784;9.934;2024-03-08T11:23:36;18.80;;;11.53;;
15449;SDS011;7826;49.784;9.934;2024-03-08T11:26:02;22.07;;;13.57;;
15449;SDS011;7826;49.784;9.934;2024-03-08T11:28:33;20.47;;;12.47;;
15449;SDS011;7826;49.784;9.934;2024-03-08T11:33:31;20.93;;;12.87;;
15449;SDS011;7826;49.784;9.934;2024-03-08T11:38:50;19.83;;;12.13;;
15449;SDS011;7826;49.784;9.934;2024-03-08T11:41:22;19.17;;;12.73;;
15449;SDS011;7826;49.784;9.934;2024-03-08T11:43:49;20.77;;;13.23;;
15449;SDS011;7826;49.784;9.934;2024-03-08T11:46:30;20.13;;;12.70;;
15449;SDS011;7826;49.784;9.934;2024-03-08T11:48:56;20.80;;;13.37;;
15449;SDS011;7826;49.784;9.934;2024-03-08T11:51:23;17.67;;;12.20;;
15449;SDS011;7826;49.784;9.934;2024-03-08T11:53:49;19.63;;;12.53;;
15449;SDS011;7826;49.784;9.934;2024-03-08T11:56:15;20.63;;;11.07;;
15449;SDS011;7826;49.784;9.934;2024-03-08T11:58:45;19.63;;;11.77;;
15449;SDS011;7826;49.784;9.934;2024-03-08T12:01:24;18.37;;;10.87;;
15449;SDS011;7826;49.784;9.934;2024-03-08T12:03:54;17.20;;;11.53;;
15449;SDS011;7826;49.784;9.934;2024-03-08T12:06:24;18.37;;;11.37;;
15449;SDS011;7826;49.784;9.934;2024-03-08T12:08:51;15.80;;;9.70;;
15449;SDS011;7826;49.784;9.934;2024-03-08T12:11:19;16.87;;;11.07;;
15449;SDS011;7826;49.784;9.934;2024-03-08T12:13:48;18.73;;;12.00;;
15449;SDS011;7826;49.784;9.934;2024-03-08T12:16:17;17.97;;;12.00;;
15449;SDS011;7826;49.784;9.934;2024-03-08T12:18:43;16.33;;;11.00;;
15449;SDS011;7826;49.784;9.934;2024-03-08T12:21:10;17.20;;;10.77;;
15449;SDS011;7826;49.784;9.934;2024-03-08T12:23:39;16.97;;;11.43;;
15449;SDS011;7826;49.784;9.934;2024-03-08T12:26:15;18.30;;;12.07;;
15449;SDS011;7826;49.784;9.934;2024-03-08T12:28:44;17.53;;;11.30;;
15449;SDS011;7826;49.784;9.934;2024-03-08T12:31:14;17.43;;;11.40;;
15449;SDS011;7826;49.784;9.934;2024-03-08T12:36:20;18.57;;;12.63;;
15449;SDS011;7826;49.784;9.934;2024-03-08T12:38:46;19.27;;;12.33;;
15449;SDS011;7826;49.784;9.934;2024-03-08T12:41:16;18.60;;;11.93;;
15449;SDS011;7826;49.784;9.934;2024-03-08T12:43:44;19.67;;;11.90;;
15449;SDS011;7826;49.784;9.934;2024-03-08T12:46:14;16.17;;;11.63;;
15449;SDS011;7826;49.784;9.934;2024-03-08T12:48:47;18.17;;;12.10;;
15449;SDS011;7826;49.784;9.934;2024-03-08T12:51:14;17.50;;;11.57;;
15449;SDS011;7826;49.784;9.934;2024-03-08T12:53:43;22.50;;;14.73;;
15449;SDS011;7826;49.784;9.934;2024-03-08T12:56:16;17.40;;;12.67;;
15449;SDS011;7826;49.784;9.934;2024-03-08T12:58:54;18.37;;;11.27;;
15449;SDS011;7826;49.784;9.934;2024-03-08T13:01:20;18.13;;;11.53;;
15449;SDS011;7826;49.784;9.934;2024-03-08T13:03:46;16.57;;;11.57;;
15449;SDS011;7826;49.784;9.934;2024-03-08T13:06:14;18.17;;;11.70;;
15449;SDS011;7826;49.784;9.934;2024-03-08T13:08:40;16.57;;;11.20;;
15449;SDS011;7826;49.784;9.934;2024-03-08T13:11:07;16.80;;;11.73;;
15449;SDS011;7826;49.784;9.934;2024-03-08T13:13:33;17.50;;;11.13;;
15449;SDS011;7826;49.784;9.934;2024-03-08T13:16:05;17.77;;;11.90;;
15449;SDS011;7826;49.784;9.934;2024-03-08T13:18:38;15.27;;;11.40;;
15449;SDS011;7826;49.784;9.934;2024-03-08T13:21:07;15.63;;;11.10;;
15449;SDS011;7826;49.784;9.934;2024-03-08T13:23:35;17.43;;;11.20;;
15449;SDS011;7826;49.784;9.934;2024-03-08T13:26:09;15.77;;;11.17;;
15449;SDS011;7826;49.784;9.934;2024-03-08T13:28:45;15.13;;;10.80;;
15449;SDS011;7826;49.784;9.934;2024-03-08T13:31:11;15.47;;;10.17;;
15449;SDS011;7826;49.784;9.934;2024-03-08T13:33:39;18.83;;;10.03;;
15449;SDS011;7826;49.784;9.934;2024-03-08T13:36:08;15.57;;;10.43;;
15449;SDS011;7826;49.784;9.934;2024-03-08T13:38:43;14.27;;;9.63;;
15449;SDS011;7826;49.784;9.934;2024-03-08T13:41:11;14.13;;;10.10;;
15449;SDS011;7826;49.784;9.934;2024-03-08T13:43:44;16.77;;;10.87;;
15449;SDS011;7826;49.784;9.934;2024-03-08T13:46:12;13.70;;;9.80;;
15449;SDS011;7826;49.784;9.934;2024-03-08T13:48:39;14.27;;;9.63;;
15449;SDS011;7826;49.784;9.934;2024-03-08T13:51:06;15.20;;;9.90;;
15449;SDS011;7826;49.784;9.934;2024-03-08T13:53:35;13.10;;;8.97;;
15449;SDS011;7826;49.784;9.934;2024-03-08T13:56:02;15.73;;;9.10;;
15449;SDS011;7826;49.784;9.934;2024-03-08T13:58:29;15.43;;;9.57;;
15449;SDS011;7826;49.784;9.934;2024-03-08T14:00:55;13.83;;;8.93;;
15449;SDS011;7826;49.784;9.934;2024-03-08T14:03:21;14.57;;;9.53;;
15449;SDS011;7826;49.784;9.934;2024-03-08T14:05:49;13.83;;;9.37;;
15449;SDS011;7826;49.784;9.934;2024-03-08T14:08:15;15.13;;;10.33;;
15449;SDS011;7826;49.784;9.934;2024-03-08T14:10:43;14.93;;;9.53;;
15449;SDS011;7826;49.784;9.934;2024-03-08T14:13:12;12.33;;;9.30;;
15449;SDS011;7826;49.784;9.934;2024-03-08T14:15:41;16.40;;;9.90;;
15449;SDS011;7826;49.784;9.934;2024-03-08T14:18:08;12.60;;;8.57;;
15449;SDS011;7826;49.784;9.934;2024-03-08T14:20:34;13.93;;;8.80;;
15449;SDS011;7826;49.784;9.934;2024-03-08T14:23:00;13.87;;;7.90;;
15449;SDS011;7826;49.784;9.934;2024-03-08T14:25:26;19.63;;;9.47;;
15449;SDS011;7826;49.784;9.934;2024-03-08T14:27:55;16.60;;;9.60;;
15449;SDS011;7826;49.784;9.934;2024-03-08T14:30:27;13.17;;;8.43;;
15449;SDS011;7826;49.784;9.934;2024-03-08T14:33:04;13.50;;;8.53;;
15449;SDS011;7826;49.784;9.934;2024-03-08T14:35:31;15.73;;;9.13;;
15449;SDS011;7826;49.784;9.934;2024-03-08T14:37:57;13.93;;;8.67;;
15449;SDS011;7826;49.784;9.934;2024-03-08T14:40:24;14.03;;;9.27;;
15449;SDS011;7826;49.784;9.934;2024-03-08T14:42:51;14.17;;;9.53;;
15449;SDS011;7826;49.784;9.934;2024-03-08T14:45:17;16.73;;;9.57;;
15449;SDS011;7826;49.784;9.934;2024-03-08T14:47:47;15.37;;;9.03;;
15449;SDS011;7826;49.784;9.934;2024-03-08T14:50:19;13.47;;;9.07;;
15449;SDS011;7826;49.784;9.934;2024-03-08T14:52:48;12.43;;;8.67;;
15449;SDS011;7826;49.784;9.934;2024-03-08T14:55:14;18.60;;;9.13;;